Time;durP1;ratioP1;P1;durP2;ratioP2;P2;SDS_P1;SDS_P2;PMS_P1;PMS_P2;Temp;Humidity;BMP_temperature;BMP_pressure;BME280_temperature;BME280_humidity;BME280_pressure;Samples;Min_cycle;Max_cycle;Signal;HPM_P1;HPM_P2
2022/12/26 00:01:08;;;;;;;1.87;1.03;;;;;;;7.94;81.47;99900.22;10350759;28;20206;-82
2022/12/26 00:06:31;;;;;;;2.20;1.37;;;;;;;7.86;80.79;99896.22;10405413;28;20210;-82
2022/12/26 00:11:53;;;;;;;1.07;1.03;;;;;;;7.97;81.48;99896.72;10431771;28;20243;-83
2022/12/26 00:17:15;;;;;;;2.03;1.30;;;;;;;8.11;81.74;99894.59;10434836;28;20413;-82
2022/12/26 00:22:37;;;;;;;1.73;1.63;;;;;;;7.95;82.13;99905.50;10366609;28;20198;-82
2022/12/26 00:27:59;;;;;;;1.80;1.70;;;;;;;8.12;82.50;99899.06;10405477;28;20198;-83
2022/12/26 00:33:21;;;;;;;2.43;2.10;;;;;;;8.04;82.44;99891.47;10419829;28;20255;-82
2022/12/26 00:38:44;;;;;;;2.57;2.10;;;;;;;7.98;82.86;99892.78;10407435;28;20286;-82
2022/12/26 00:44:06;;;;;;;2.73;2.10;;;;;;;8.30;81.17;99889.50;10389317;28;20251;-82
2022/12/26 00:49:28;;;;;;;4.87;2.50;;;;;;;8.56;79.28;99895.09;10417412;28;20538;-83
2022/12/26 00:54:50;;;;;;;3.73;2.40;;;;;;;8.30;80.83;99897.09;10385606;28;20518;-82
2022/12/26 01:00:13;;;;;;;2.87;2.30;;;;;;;8.26;81.72;99890.47;10386756;28;20262;-83
2022/12/26 01:05:40;;;;;;;2.37;2.17;;;;;;;8.08;82.17;99886.88;10414219;28;20218;-82
2022/12/26 01:11:07;;;;;;;7.53;2.83;;;;;;;7.91;83.13;99901.69;10400127;28;20197;-82
2022/12/26 01:16:29;;;;;;;2.90;2.70;;;;;;;8.23;81.54;99906.00;10372317;28;20196;-82
2022/12/26 01:21:51;;;;;;;4.43;2.80;;;;;;;7.99;81.68;99914.06;10453076;28;20205;-82
2022/12/26 01:27:13;;;;;;;2.13;2.03;;;;;;;7.58;83.19;99922.94;10468962;28;20272;-87
2022/12/26 01:32:35;;;;;;;5.07;2.30;;;;;;;7.91;81.51;99921.34;10387311;28;20699;-82
2022/12/26 01:37:57;;;;;;;2.30;2.00;;;;;;;8.34;79.50;99923.34;10316521;28;20218;-82
2022/12/26 01:43:19;;;;;;;3.00;2.70;;;;;;;8.41;79.17;99924.50;10372496;28;20213;-81
2022/12/26 01:48:41;;;;;;;4.87;2.93;;;;;;;8.22;80.57;99949.28;10401335;28;20302;-82
2022/12/26 01:54:06;;;;;;;4.80;3.57;;;;;;;8.05;81.04;99933.25;10383503;28;20198;-82
2022/12/26 01:59:29;;;;;;;5.47;3.77;;;;;;;7.97;81.36;99958.47;10372128;28;20207;-81
2022/12/26 02:10:45;;;;;;;3.30;2.60;;;;;;;7.94;81.69;99948.75;10401002;28;20259;-82
2022/12/26 02:16:10;;;;;;;4.30;2.60;;;;;;;7.99;81.85;99944.94;10397609;28;20239;-83
2022/12/26 02:22:01;;;;;;;2.30;2.00;;;;;;;8.36;80.07;99949.09;10501310;28;20247;-82
2022/12/26 02:27:34;;;;;;;1.37;1.03;;;;;;;8.02;81.67;99972.38;10433508;28;20572;-82
2022/12/26 02:33:14;;;;;;;2.40;1.23;;;;;;;8.09;81.92;99961.50;10415509;28;20281;-81
2022/12/26 02:39:10;;;;;;;1.23;1.10;;;;;;;7.64;82.34;99958.91;10404504;28;20256;-82
2022/12/26 03:13:43;;;;;;;2.70;1.77;;;;;;;8.09;82.30;99961.50;10385890;28;20240;-82
2022/12/26 03:19:07;;;;;;;1.53;1.43;;;;;;;7.93;83.18;99968.72;10336131;28;20659;-81
2022/12/26 03:26:38;;;;;;;2.27;1.47;;;;;;;7.94;82.79;99979.63;10415099;28;20608;-82
2022/12/26 03:35:52;;;;;;;3.10;2.20;;;;;;;7.93;82.94;99965.91;10436278;28;20216;-83
2022/12/26 04:45:55;;;;;;;5.47;4.97;;;;;;;7.47;79.51;100012.06;10518505;28;20214;-81
2022/12/26 04:51:17;;;;;;;4.20;3.80;;;;;;;7.61;79.24;100018.44;10516292;28;20206;-81
2022/12/26 04:56:39;;;;;;;4.10;3.80;;;;;;;7.35;79.08;100028.66;10525131;28;20233;-81
2022/12/26 05:13:24;;;;;;;3.47;2.90;;;;;;;7.44;78.99;100048.38;10530714;28;20245;-82
2022/12/26 05:30:14;;;;;;;2.10;1.60;;;;;;;7.49;77.72;100037.81;10518201;28;20194;-82
2022/12/26 05:35:37;;;;;;;2.13;1.80;;;;;;;7.20;78.76;100037.47;10497645;28;20262;-82
2022/12/26 05:40:59;;;;;;;2.20;2.00;;;;;;;7.07;79.59;100041.19;10367396;28;20254;-81
2022/12/26 05:46:21;;;;;;;2.57;2.37;;;;;;;7.28;77.15;100047.94;10401226;28;20218;-82
2022/12/26 05:51:43;;;;;;;1.93;1.83;;;;;;;6.88;79.08;100050.63;10384059;28;20267;-81
2022/12/26 05:57:05;;;;;;;3.50;2.30;;;;;;;7.52;76.64;100047.56;10408973;28;20278;-82
2022/12/26 06:02:28;;;;;;;2.00;1.63;;;;;;;7.54;76.26;100064.91;10424965;28;20193;-83
2022/12/26 06:07:50;;;;;;;1.70;1.57;;;;;;;7.00;77.98;100062.09;10418245;28;20217;-83
2022/12/26 06:13:12;;;;;;;2.53;1.80;;;;;;;7.45;75.75;100070.44;10383655;28;20198;-83
2022/12/26 06:18:35;;;;;;;2.57;2.10;;;;;;;7.41;76.62;100051.81;10397070;28;20198;-83
2022/12/26 06:23:57;;;;;;;1.90;1.80;;;;;;;7.26;76.35;100028.63;10424923;28;20189;-84
2022/12/26 06:29:19;;;;;;;2.53;2.07;;;;;;;7.50;75.45;100033.88;10410733;28;20215;-82
2022/12/26 06:34:41;;;;;;;2.50;2.30;;;;;;;7.36;77.55;100019.13;10426433;28;20271;-82
2022/12/26 06:40:05;;;;;;;2.23;2.03;;;;;;;6.95;78.68;100034.19;10411603;28;20537;-82
2022/12/26 06:45:27;;;;;;;2.30;2.10;;;;;;;7.09;77.81;100033.28;10396768;28;20222;-83
2022/12/26 06:50:50;;;;;;;2.67;2.10;;;;;;;7.47;76.33;100045.72;10415081;28;20193;-82
2022/12/26 06:56:14;;;;;;;2.40;2.20;;;;;;;7.67;75.34;100039.59;10430590;28;20278;-82
2022/12/26 07:01:37;;;;;;;7.23;2.80;;;;;;;7.09;77.91;100052.91;10386618;28;20198;-82
2022/12/26 07:06:59;;;;;;;3.07;2.10;;;;;;;7.18;77.66;100053.81;10448565;28;20301;-83
2022/12/26 07:12:21;;;;;;;2.23;2.03;;;;;;;7.55;75.47;100042.19;10450848;28;20205;-83
2022/12/26 07:17:43;;;;;;;2.83;2.27;;;;;;;7.85;74.31;100056.50;10391366;28;20236;-83
2022/12/26 07:23:05;;;;;;;1.83;1.67;;;;;;;7.72;74.32;100080.69;10408942;28;20201;-83
2022/12/26 07:28:27;;;;;;;2.63;1.87;;;;;;;7.63;74.23;100100.28;10412646;28;20213;-83
2022/12/26 07:33:52;;;;;;;2.27;1.43;;;;;;;7.73;74.68;100102.81;10393171;28;20204;-83
2022/12/26 07:39:14;;;;;;;2.90;1.40;;;;;;;7.89;74.28;100099.59;10402169;28;20270;-83
2022/12/26 07:44:38;;;;;;;2.80;1.57;;;;;;;7.60;74.74;100105.72;10436988;28;20212;-84
2022/12/26 07:50:00;;;;;;;3.83;1.97;;;;;;;8.01;73.55;100094.19;10429170;28;20487;-84
2022/12/26 07:55:22;;;;;;;3.07;1.87;;;;;;;7.63;75.17;100110.69;10389714;28;20217;-83
2022/12/26 08:00:44;;;;;;;2.30;2.20;;;;;;;7.58;76.35;100113.66;10423617;28;20202;-83
2022/12/26 08:06:09;;;;;;;3.30;3.00;;;;;;;7.54;76.50;100110.63;10393167;28;20241;-83
2022/12/26 08:11:33;;;;;;;3.67;2.87;;;;;;;7.75;74.62;100112.88;10402617;28;20260;-84
2022/12/26 08:16:55;;;;;;;3.57;2.53;;;;;;;7.62;75.36;100123.88;10422549;28;20206;-83
2022/12/26 08:22:18;;;;;;;2.53;2.33;;;;;;;7.47;75.33;100141.06;10431052;28;20592;-85
2022/12/26 08:27:40;;;;;;;3.80;2.07;;;;;;;7.33;76.65;100140.31;10412725;28;20274;-84
2022/12/26 08:33:02;;;;;;;3.70;2.33;;;;;;;7.94;74.22;100121.91;10433534;28;20608;-82
2022/12/26 08:38:24;;;;;;;3.70;1.60;;;;;;;7.59;74.59;100132.94;10440128;28;20285;-83
2022/12/26 08:43:48;;;;;;;2.03;1.40;;;;;;;8.00;72.19;100140.25;10437839;28;20275;-81
2022/12/26 08:49:10;;;;;;;1.23;0.80;;;;;;;7.53;72.85;100133.38;10433708;28;20329;-82
2022/12/26 08:54:32;;;;;;;1.60;0.70;;;;;;;7.87;71.15;100150.41;10357018;28;20228;-81
2022/12/26 08:59:54;;;;;;;3.57;0.97;;;;;;;8.08;70.72;100159.13;10431174;28;20204;-85
2022/12/26 09:05:16;;;;;;;2.90;0.77;;;;;;;7.96;70.46;100147.69;10398206;28;20526;-82
2022/12/26 09:10:39;;;;;;;2.80;0.50;;;;;;;7.47;70.91;100162.66;10413108;28;20237;-82
2022/12/26 09:16:13;;;;;;;0.87;0.37;;;;;;;7.55;70.76;100173.19;10388223;28;20225;-84
2022/12/26 09:21:35;;;;;;;2.03;0.70;;;;;;;7.66;70.43;100166.97;10386473;28;20703;-82
2022/12/26 09:26:57;;;;;;;1.37;0.30;;;;;;;7.58;70.36;100164.94;10400037;28;20302;-87
2022/12/26 09:32:19;;;;;;;1.17;0.30;;;;;;;7.81;69.57;100173.34;10335886;28;20225;-87
2022/12/26 09:37:41;;;;;;;2.17;0.40;;;;;;;7.87;69.04;100183.25;10376629;28;20730;-81
2022/12/26 09:43:34;;;;;;;0.40;0.30;;;;;;;8.04;69.21;100200.22;10339711;28;20283;-82
2022/12/26 09:49:03;;;;;;;1.53;0.60;;;;;;;7.80;67.26;100194.13;10387730;28;20787;-82
2022/12/26 09:54:33;;;;;;;1.70;0.30;;;;;;;7.92;67.09;100191.56;10382436;28;20232;-84
2022/12/26 09:59:57;;;;;;;0.73;0.27;;;;;;;7.94;66.99;100194.88;10394632;28;20603;-86
2022/12/26 10:05:24;;;;;;;2.17;0.50;;;;;;;8.19;65.96;100208.22;10374516;28;20262;-80
2022/12/26 10:11:00;;;;;;;3.30;0.30;;;;;;;7.66;67.30;100217.47;10330484;28;20259;-84
2022/12/26 10:16:29;;;;;;;3.10;0.30;;;;;;;8.16;65.47;100202.41;10386129;28;20213;-82
2022/12/26 10:22:07;;;;;;;0.33;0.20;;;;;;;8.14;65.83;100216.78;10390582;28;20229;-82
2022/12/26 10:27:33;;;;;;;2.67;0.70;;;;;;;8.16;64.77;100217.28;10399337;28;20342;-82
2022/12/26 10:33:01;;;;;;;0.50;0.20;;;;;;;8.29;65.70;100212.72;10406868;28;20241;-83
2022/12/26 10:38:33;;;;;;;1.03;0.30;;;;;;;8.18;65.58;100205.72;10390561;28;20248;-86
2022/12/26 10:43:56;;;;;;;1.37;0.40;;;;;;;8.28;65.06;100211.88;10400744;28;20230;-81
2022/12/26 10:49:21;;;;;;;1.43;0.30;;;;;;;8.01;65.34;100184.00;10384786;28;20309;-80
2022/12/26 10:54:52;;;;;;;3.03;0.30;;;;;;;7.98;66.65;100193.06;10402472;28;20645;-83
2022/12/26 11:00:23;;;;;;;2.27;0.23;;;;;;;7.76;67.08;100184.69;10409302;27;20217;-81
2022/12/26 11:05:47;;;;;;;2.83;0.30;;;;;;;8.36;65.46;100201.84;10393273;28;20241;-85
2022/12/26 11:11:46;;;;;;;1.03;0.23;;;;;;;8.28;65.09;100186.63;10393426;28;20242;-85
2022/12/26 11:17:37;;;;;;;3.03;0.60;;;;;;;7.70;66.49;100181.19;10382587;28;20218;-85
2022/12/26 11:23:31;;;;;;;2.00;0.90;;;;;;;8.55;64.68;100193.16;10394109;28;20228;-85
2022/12/26 11:29:14;;;;;;;3.30;1.17;;;;;;;8.25;65.37;100201.28;10356144;28;20305;-83
2022/12/26 11:34:44;;;;;;;2.10;0.40;;;;;;;7.77;66.49;100189.97;10407954;28;20290;-84
2022/12/26 11:40:16;;;;;;;1.57;0.40;;;;;;;7.88;66.04;100202.59;10389064;28;20274;-84
2022/12/26 11:45:42;;;;;;;2.47;0.50;;;;;;;8.38;64.35;100197.56;10404202;28;20221;-82
2022/12/26 11:51:06;;;;;;;2.93;0.60;;;;;;;8.14;64.54;100199.94;10381647;28;20251;-83
2022/12/26 11:56:28;;;;;;;3.33;0.40;;;;;;;7.35;70.38;100203.34;10386054;28;20275;-81
2022/12/26 12:02:15;;;;;;;0.80;0.50;;;;;;;8.02;68.89;100196.88;10408065;28;20539;-82
2022/12/26 12:07:47;;;;;;;2.47;0.40;;;;;;;7.82;68.50;100208.66;10397111;28;20285;-82
2022/12/26 12:13:20;;;;;;;2.67;0.90;;;;;;;8.02;66.91;100192.09;10412196;28;20233;-84
2022/12/26 12:18:52;;;;;;;2.97;0.53;;;;;;;7.58;67.62;100190.16;10404623;28;20194;-85
2022/12/26 12:24:27;;;;;;;1.60;0.40;;;;;;;7.81;67.71;100192.97;10406783;28;20201;-83
2022/12/26 12:30:16;;;;;;;2.47;0.87;;;;;;;8.43;65.68;100191.81;10411000;28;20252;-83
2022/12/26 12:36:12;;;;;;;3.20;0.40;;;;;;;8.37;64.18;100170.63;10384382;28;20293;-84
2022/12/26 12:41:51;;;;;;;1.30;0.50;;;;;;;8.10;65.83;100176.44;10409568;28;20554;-82
2022/12/26 12:47:39;;;;;;;0.77;0.33;;;;;;;7.95;65.91;100171.28;10388698;28;20856;-85
2022/12/26 12:53:04;;;;;;;1.43;0.60;;;;;;;8.26;64.92;100179.66;10380465;28;20840;-82
2022/12/26 12:58:47;;;;;;;4.67;0.50;;;;;;;7.59;67.00;100177.81;10344217;28;20245;-82
2022/12/26 13:04:11;;;;;;;3.53;0.73;;;;;;;8.25;65.25;100195.69;10402313;28;20220;-82
2022/12/26 13:09:43;;;;;;;3.83;0.57;;;;;;;6.21;72.65;100246.38;10413473;28;20252;-80
2022/12/26 13:15:18;;;;;;;2.20;0.60;;;;;;;6.19;74.33;100259.00;10385369;28;20278;-81
2022/12/26 13:20:43;;;;;;;2.40;0.70;;;;;;;6.73;72.69;100258.25;10342995;28;20229;-81
2022/12/26 13:26:10;;;;;;;2.17;0.70;;;;;;;6.38;73.19;100253.34;10429496;28;20293;-82
2022/12/26 13:31:37;;;;;;;2.03;0.73;;;;;;;7.14;72.52;100254.59;10400874;28;20278;-82
2022/12/26 13:37:00;;;;;;;3.63;1.50;;;;;;;6.49;73.63;100254.84;10399226;28;20292;-86
2022/12/26 13:48:19;;;;;;;6.13;2.80;;;;;;;6.74;73.30;100284.31;10324674;28;20249;-86
2022/12/26 13:53:57;;;;;;;6.63;3.40;;;;;;;6.42;73.97;100288.84;10425373;28;20193;-86
2022/12/26 13:59:29;;;;;;;5.43;4.43;;;;;;;6.64;75.00;100293.75;10412418;28;20262;-85
2022/12/26 14:05:38;;;;;;;8.23;4.57;;;;;;;6.48;73.36;100293.22;10395892;28;20241;-86
2022/12/26 14:11:19;;;;;;;5.10;3.27;;;;;;;6.74;70.95;100306.72;10394383;28;20576;-80
2022/12/26 14:16:56;;;;;;;5.47;3.50;;;;;;;6.63;70.41;100311.69;10350820;28;20279;-81
2022/12/26 14:22:33;;;;;;;5.30;2.57;;;;;;;6.77;70.84;100328.50;10351302;28;20220;-85
2022/12/26 14:28:09;;;;;;;5.17;1.87;;;;;;;5.73;69.81;100331.72;10369156;28;20229;-85
2022/12/26 14:33:39;;;;;;;3.73;1.47;;;;;;;5.16;69.84;100350.38;10406891;28;20322;-82
2022/12/26 14:39:32;;;;;;;5.37;1.87;;;;;;;5.39;70.44;100369.06;10412240;28;20260;-84
2022/12/26 14:44:56;;;;;;;5.13;2.07;;;;;;;5.20;68.31;100362.63;10448854;27;20323;-84
2022/12/26 14:50:38;;;;;;;4.60;1.57;;;;;;;5.61;65.36;100373.28;10381440;28;20570;-84
2022/12/26 14:56:09;;;;;;;5.53;1.53;;;;;;;5.57;65.48;100385.06;10413272;28;20297;-81
2022/12/26 15:01:38;;;;;;;3.80;1.70;;;;;;;5.29;67.20;100411.13;10398932;28;20190;-85
2022/12/26 15:07:38;;;;;;;7.67;2.23;;;;;;;4.76;68.30;100430.69;10409486;28;20235;-85
2022/12/26 15:13:37;;;;;;;4.73;1.93;;;;;;;5.24;67.87;100441.97;10344718;28;20589;-85
2022/12/26 15:19:21;;;;;;;8.97;1.83;;;;;;;4.59;65.07;100440.66;10352088;28;20246;-82
2022/12/26 15:25:27;;;;;;;5.73;1.27;;;;;;;5.61;62.61;100445.97;10356587;28;20247;-85
2022/12/26 15:31:35;;;;;;;4.87;1.23;;;;;;;5.07;63.08;100450.75;10423488;28;20221;-82
2022/12/26 15:37:16;;;;;;;5.77;1.83;;;;;;;4.62;65.54;100452.03;10380397;28;20279;-86
2022/12/26 15:42:57;;;;;;;6.63;1.27;;;;;;;4.84;63.71;100471.97;10408739;28;20206;-85
2022/12/26 15:48:29;;;;;;;6.50;1.37;;;;;;;5.13;62.84;100477.50;10405484;28;20213;-81
2022/12/26 15:53:51;;;;;;;4.97;1.37;;;;;;;5.19;61.71;100483.91;10401311;28;20391;-83
2022/12/26 15:59:25;;;;;;;8.47;1.00;;;;;;;4.73;61.28;100492.69;10353350;28;20486;-86
2022/12/26 16:04:53;;;;;;;3.17;1.10;;;;;;;4.79;62.25;100507.47;10471200;28;20190;-85
2022/12/26 16:10:24;;;;;;;4.17;2.17;;;;;;;4.23;62.50;100521.81;10389087;28;20198;-84
2022/12/26 16:15:51;;;;;;;5.23;1.33;;;;;;;4.71;60.00;100519.28;10433761;28;20209;-88
2022/12/26 16:27:07;;;;;;;6.40;1.00;;;;;;;4.42;60.90;100541.53;10402676;28;20229;-84
2022/12/26 16:32:39;;;;;;;4.97;0.90;;;;;;;4.35;59.65;100553.00;10437768;28;20605;-82
2022/12/26 16:38:04;;;;;;;3.30;0.80;;;;;;;4.26;60.77;100565.91;10393076;28;20217;-83
2022/12/26 16:43:30;;;;;;;4.90;1.13;;;;;;;3.63;63.10;100573.13;10395212;28;20196;-81
2022/12/26 16:48:55;;;;;;;6.23;1.40;;;;;;;4.56;60.32;100578.84;10402906;28;20236;-84
2022/12/26 16:54:20;;;;;;;4.87;1.30;;;;;;;3.90;60.54;100595.91;10356282;28;20240;-86
2022/12/26 16:59:54;;;;;;;4.23;1.53;;;;;;;4.46;59.32;100588.09;10365090;28;20665;-82
2022/12/26 17:05:20;;;;;;;5.40;1.60;;;;;;;4.12;60.79;100603.91;10370242;28;20209;-81
2022/12/26 17:10:48;;;;;;;5.93;1.50;;;;;;;4.21;60.09;100607.75;10437867;28;20235;-83
2022/12/26 17:16:10;;;;;;;3.60;1.30;;;;;;;4.36;59.78;100613.28;10425403;28;20337;-79
2022/12/26 17:21:32;;;;;;;6.77;1.70;;;;;;;4.47;59.16;100630.78;10385573;28;20251;-80
2022/12/26 17:27:14;;;;;;;5.53;1.80;;;;;;;4.53;58.90;100633.28;10396904;28;20251;-84
2022/12/26 17:32:39;;;;;;;4.67;2.10;;;;;;;4.16;61.10;100650.47;10396213;28;20205;-80
2022/12/26 17:38:07;;;;;;;6.07;1.83;;;;;;;3.18;61.93;100652.84;10400454;28;20245;-86
2022/12/26 17:43:32;;;;;;;6.43;2.50;;;;;;;3.42;61.54;100650.38;10442108;27;20285;-82
2022/12/26 17:48:54;;;;;;;6.60;1.97;;;;;;;3.25;62.21;100659.00;10389439;28;20249;-82
2022/12/26 17:54:16;;;;;;;5.73;2.87;;;;;;;3.81;61.08;100670.13;10395327;28;20247;-81
2022/12/26 17:59:38;;;;;;;4.73;2.10;;;;;;;4.09;60.49;100671.41;10408785;28;20229;-79
2022/12/26 18:05:00;;;;;;;4.43;2.07;;;;;;;4.35;59.01;100677.72;10340748;28;20252;-87
2022/12/26 18:10:27;;;;;;;3.13;1.17;;;;;;;4.12;58.20;100682.84;10328464;28;20749;-81
2022/12/26 18:15:50;;;;;;;5.03;1.40;;;;;;;3.80;58.57;100699.13;10389594;28;20301;-82
2022/12/26 18:21:13;;;;;;;4.80;1.10;;;;;;;3.67;57.75;100710.81;10381857;28;20272;-81
2022/12/26 18:26:36;;;;;;;3.13;0.70;;;;;;;3.42;58.49;100729.19;10394980;28;20230;-81
2022/12/26 18:31:58;;;;;;;3.90;0.93;;;;;;;3.47;59.64;100728.38;10408652;28;20618;-81
2022/12/26 18:37:22;;;;;;;4.47;1.53;;;;;;;3.65;59.11;100733.38;10384112;28;20246;-82
2022/12/26 18:42:44;;;;;;;3.13;1.30;;;;;;;3.76;57.73;100745.41;10398553;28;20220;-80
2022/12/26 18:48:09;;;;;;;3.70;1.70;;;;;;;3.77;57.41;100744.28;10389718;28;20542;-79
2022/12/26 18:53:31;;;;;;;4.17;1.63;;;;;;;3.09;60.21;100763.16;10401401;28;20266;-87
2022/12/26 18:58:53;;;;;;;2.83;1.33;;;;;;;3.35;59.41;100767.66;10382723;28;20261;-80
2022/12/26 19:04:16;;;;;;;4.80;1.67;;;;;;;3.45;59.25;100787.16;10408132;28;20236;-79
2022/12/26 19:09:42;;;;;;;3.57;1.70;;;;;;;3.66;58.36;100795.56;10396335;28;20271;-80
2022/12/26 19:15:04;;;;;;;3.40;1.70;;;;;;;2.91;60.92;100802.63;10403774;28;20248;-79
2022/12/26 19:20:27;;;;;;;3.80;1.10;;;;;;;3.26;58.84;100825.03;10390227;28;20218;-79
2022/12/26 19:25:49;;;;;;;5.23;1.87;;;;;;;3.17;59.80;100835.00;10395608;28;20205;-81
2022/12/26 19:31:13;;;;;;;2.80;1.10;;;;;;;3.06;61.86;100842.50;10394502;28;20299;-81
2022/12/26 19:36:35;;;;;;;2.87;1.10;;;;;;;3.31;58.93;100850.09;10396341;28;20298;-82
2022/12/26 19:41:58;;;;;;;5.03;1.70;;;;;;;3.09;59.39;100866.19;10345849;28;20598;-80
2022/12/26 19:47:20;;;;;;;3.87;1.50;;;;;;;3.41;58.82;100866.88;10411095;28;20226;-80
2022/12/26 19:52:42;;;;;;;4.93;1.50;;;;;;;3.22;57.35;100884.34;10374784;28;20225;-79
2022/12/26 19:58:04;;;;;;;6.37;1.50;;;;;;;2.81;59.12;100877.75;10436538;28;20221;-80
2022/12/26 20:03:26;;;;;;;4.90;1.30;;;;;;;2.45;60.49;100894.22;10418982;28;20544;-82
2022/12/26 20:08:49;;;;;;;4.30;1.77;;;;;;;2.73;59.88;100896.66;10402716;28;20608;-81
2022/12/26 20:14:14;;;;;;;5.17;1.77;;;;;;;2.53;59.67;100904.84;10405237;28;20521;-83
2022/12/26 20:19:36;;;;;;;9.20;2.13;;;;;;;2.29;62.03;100909.13;10409847;28;20206;-80
2022/12/26 20:24:58;;;;;;;10.57;2.93;;;;;;;2.46;60.49;100915.38;10422663;28;20226;-80
2022/12/26 20:30:20;;;;;;;7.87;2.13;;;;;;;2.59;60.11;100914.94;10396530;28;20266;-79
2022/12/26 20:35:42;;;;;;;5.27;1.80;;;;;;;2.86;59.65;100911.19;10413721;28;20245;-82
2022/12/26 20:41:05;;;;;;;4.87;1.83;;;;;;;2.45;59.76;100930.41;10389182;28;20221;-80
2022/12/26 20:46:30;;;;;;;8.27;1.83;;;;;;;2.13;61.61;100932.31;10409746;28;20202;-82
2022/12/26 20:51:52;;;;;;;6.30;1.60;;;;;;;2.16;61.71;100937.34;10382992;28;20229;-81
2022/12/26 20:57:15;;;;;;;6.00;1.37;;;;;;;1.91;61.92;100944.34;10384995;28;20256;-80
2022/12/26 21:02:37;;;;;;;4.60;1.23;;;;;;;1.94;61.05;100946.63;10377265;28;20310;-80
2022/12/26 21:07:59;;;;;;;6.17;1.40;;;;;;;2.25;59.81;100935.81;10394605;28;20240;-83
2022/12/26 21:13:22;;;;;;;5.47;1.30;;;;;;;2.24;59.21;100939.69;10351370;28;20653;-81
2022/12/26 21:18:45;;;;;;;4.57;1.30;;;;;;;1.89;59.97;100949.34;10411161;28;20206;-80
2022/12/26 21:24:10;;;;;;;5.77;1.70;;;;;;;1.94;60.41;100946.63;10403974;28;20280;-80
2022/12/26 21:29:34;;;;;;;6.37;1.53;;;;;;;2.02;58.94;100960.03;10425221;28;20212;-80
2022/12/26 21:34:56;;;;;;;9.07;1.47;;;;;;;1.44;61.57;100974.69;10412581;28;20214;-81
2022/12/26 21:40:20;;;;;;;6.70;1.30;;;;;;;2.09;58.92;100973.75;10396069;28;20594;-80
2022/12/26 21:45:43;;;;;;;9.47;1.40;;;;;;;2.11;58.95;100968.75;10391358;28;20201;-82
2022/12/26 21:51:08;;;;;;;4.50;1.00;;;;;;;2.07;59.96;100962.03;10403328;28;20230;-81
2022/12/26 21:56:30;;;;;;;3.33;1.30;;;;;;;1.63;61.03;100977.94;10418551;28;20217;-81
2022/12/26 22:01:52;;;;;;;5.50;0.90;;;;;;;2.33;59.05;100966.75;10411411;28;20254;-80
2022/12/26 22:07:14;;;;;;;4.37;0.80;;;;;;;1.46;60.14;100988.31;10422618;28;20213;-80
2022/12/26 22:18:18;;;;;;;5.43;1.20;;;;;;;2.32;57.95;100986.50;10341263;28;20194;-80
2022/12/26 22:23:41;;;;;;;3.03;0.77;;;;;;;2.55;56.75;101000.03;10435730;28;20209;-80
2022/12/26 22:29:03;;;;;;;6.83;1.00;;;;;;;2.20;58.49;101011.69;10431332;28;20221;-80
2022/12/26 22:34:25;;;;;;;2.73;0.83;;;;;;;2.62;56.77;101011.78;10361047;28;20202;-79
2022/12/26 22:39:47;;;;;;;6.60;1.40;;;;;;;2.39;57.49;101021.31;10350741;28;20202;-79
2022/12/26 22:45:09;;;;;;;4.23;1.30;;;;;;;2.34;57.37;101034.34;10405341;28;20200;-80
2022/12/26 22:50:31;;;;;;;3.67;1.10;;;;;;;2.17;59.27;101025.25;10363650;28;20247;-80
2022/12/26 22:55:58;;;;;;;6.00;1.20;;;;;;;2.01;58.90;101027.84;10443588;28;20237;-80
2022/12/26 23:01:21;;;;;;;6.63;1.83;;;;;;;2.15;58.90;101035.78;10406695;28;20198;-80
2022/12/26 23:06:44;;;;;;;5.77;0.90;;;;;;;1.86;59.24;101058.28;10411673;28;20205;-82
2022/12/26 23:23:59;;;;;;;6.33;1.50;;;;;;;2.06;58.71;101065.16;10401856;28;20197;-80
2022/12/26 23:35:05;;;;;;;4.87;0.73;;;;;;;2.41;57.30;101061.94;10396793;28;20256;-80
2022/12/26 23:40:27;;;;;;;4.67;0.93;;;;;;;2.25;58.33;101063.75;10405901;28;20251;-81
2022/12/26 23:45:49;;;;;;;4.57;0.73;;;;;;;2.03;59.40;101067.38;10341160;28;20201;-80
2022/12/26 23:51:11;;;;;;;5.30;1.23;;;;;;;2.41;58.62;101078.63;10414595;28;20244;-80
2022/12/26 23:56:35;;;;;;;7.57;1.20;;;;;;;2.21;58.78;101079.28;10362149;28;20225;-79
